Espyville, Pennsylvania
Current Conditions -  °F | °C
As of 7:53 AM on Thursday 27 Nov 2014 (Local Time) from KGKJ Reporting Station
Haze Haze  
Wind Chill: 30°   Ceiling: 6500
Heat Index: 30°   Visibility: 5mi
Dew Point: 28°   Wind: 3mph
Humidity: 92%   Direction: 10°N
Pressure: 30.01"   Gusts: NA
Location:  41.6811°N, 80.4288°W
Report Text: KGKJ 271253Z AUTO 01003KT 5SM BR FEW041 OVC065 M01/M02 A3001 RMK AO2 SNE00B20E33 SLP175 P0000 T10111022 TSNO
Loading
Personal Weather Stations






























Interactive Weather Map New forecast layout! Learn more

10-Day Weather Forecast

Advertisements
Track Severe Weather on mobile